createdAt,value
2019-03-06T00:00:58.337Z,3.20
2019-03-06T00:03:27.263Z,5.17
2019-03-06T00:05:56.175Z,3.90
2019-03-06T00:08:25.046Z,3.67
2019-03-06T00:10:54.099Z,5.67
2019-03-06T00:13:23.280Z,3.80
2019-03-06T00:15:52.375Z,3.83
2019-03-06T00:18:21.188Z,3.60
2019-03-06T00:20:50.433Z,5.07
2019-03-06T00:23:19.684Z,3.77
2019-03-06T00:25:48.587Z,3.67
2019-03-06T00:28:17.555Z,3.23
2019-03-06T00:30:46.711Z,3.20
2019-03-06T00:33:15.584Z,2.77
2019-03-06T00:35:46.198Z,3.80
2019-03-06T00:38:15.250Z,2.50
2019-03-06T00:41:02.490Z,4.43
2019-03-06T00:43:31.523Z,4.63
2019-03-06T00:46:00.914Z,3.70
2019-03-06T00:48:29.984Z,3.70
2019-03-06T00:50:58.866Z,3.97
2019-03-06T00:53:28.004Z,3.23
2019-03-06T00:55:56.988Z,5.40
2019-03-06T00:58:25.984Z,1.93
2019-03-06T01:00:55.483Z,3.00
2019-03-06T01:03:24.417Z,4.23
2019-03-06T01:05:54.736Z,3.13
2019-03-06T01:08:24.142Z,2.47
2019-03-06T01:10:53.343Z,2.10
2019-03-06T01:13:22.305Z,3.87
2019-03-06T01:15:51.197Z,3.13
2019-03-06T01:18:20.171Z,3.57
2019-03-06T01:20:49.786Z,2.57
2019-03-06T01:23:18.780Z,2.20
2019-03-06T01:25:47.839Z,2.17
2019-03-06T01:28:16.930Z,3.13
2019-03-06T01:30:45.742Z,2.13
2019-03-06T01:33:19.310Z,2.43
2019-03-06T01:35:50.057Z,2.20
2019-03-06T01:38:23.696Z,2.67
2019-03-06T01:40:54.186Z,2.83
2019-03-06T01:43:27.895Z,2.97
2019-03-06T01:45:56.990Z,2.87
2019-03-06T01:48:25.889Z,2.47
2019-03-06T01:50:54.777Z,2.60
2019-03-06T01:53:23.965Z,2.43
2019-03-06T01:55:52.899Z,4.87
2019-03-06T01:58:22.261Z,3.50
2019-03-06T02:00:51.115Z,2.07
2019-03-06T02:03:20.066Z,3.53
2019-03-06T02:05:48.900Z,4.03
2019-03-06T02:08:18.099Z,3.10
2019-03-06T02:10:47.360Z,2.90
2019-03-06T02:13:16.301Z,3.13
2019-03-06T02:15:45.295Z,4.30
2019-03-06T02:18:14.213Z,3.77
2019-03-06T02:20:43.179Z,6.07
2019-03-06T02:23:12.388Z,3.10
2019-03-06T02:25:41.283Z,4.37
2019-03-06T02:28:10.525Z,1.83
2019-03-06T02:30:42.172Z,3.53
2019-03-06T02:33:10.297Z,2.13
2019-03-06T02:35:42.054Z,2.87
2019-03-06T02:38:11.745Z,1.87
2019-03-06T02:40:40.564Z,4.13
2019-03-06T02:43:09.623Z,5.07
2019-03-06T02:45:38.470Z,4.13
2019-03-06T02:48:07.658Z,3.43
2019-03-06T02:50:36.480Z,1.23
2019-03-06T02:53:05.484Z,2.97
2019-03-06T02:55:34.388Z,3.50
2019-03-06T02:58:07.940Z,1.87
2019-03-06T03:00:38.708Z,5.10
2019-03-06T03:03:25.550Z,3.97
2019-03-06T03:05:58.851Z,1.43
2019-03-06T03:08:28.248Z,3.60
2019-03-06T03:10:57.168Z,6.23
2019-03-06T03:13:26.278Z,3.67
2019-03-06T03:15:55.467Z,1.67
2019-03-06T03:18:24.402Z,1.73
2019-03-06T03:20:53.277Z,2.70
2019-03-06T03:23:22.189Z,3.23
2019-03-06T03:25:51.178Z,1.63
2019-03-06T03:28:20.026Z,3.47
2019-03-06T03:30:50.602Z,3.97
2019-03-06T03:33:19.468Z,2.57
2019-03-06T03:35:48.294Z,1.37
2019-03-06T03:38:17.339Z,3.70
2019-03-06T03:40:46.273Z,6.87
2019-03-06T03:43:15.254Z,6.83
2019-03-06T03:45:45.888Z,3.93
2019-03-06T03:48:14.754Z,2.47
2019-03-06T03:50:43.588Z,2.20
2019-03-06T03:53:12.585Z,4.33
2019-03-06T03:55:41.463Z,2.83
2019-03-06T03:58:10.333Z,3.47
2019-03-06T04:00:39.519Z,2.17
2019-03-06T04:03:08.467Z,3.97
2019-03-06T04:05:37.406Z,9.10
2019-03-06T04:08:06.307Z,2.10
2019-03-06T04:10:35.270Z,4.67
2019-03-06T04:13:04.555Z,1.63
2019-03-06T04:15:33.501Z,4.97
2019-03-06T04:18:02.477Z,5.17
2019-03-06T04:20:31.610Z,3.70
2019-03-06T04:23:02.196Z,3.83
2019-03-06T04:25:31.074Z,2.90
2019-03-06T04:28:04.569Z,3.53
2019-03-06T04:30:34.747Z,3.03
2019-03-06T04:33:03.669Z,4.33
2019-03-06T04:35:32.596Z,1.87
2019-03-06T04:38:01.806Z,2.93
2019-03-06T04:40:33.807Z,2.40
2019-03-06T04:43:02.835Z,2.27
2019-03-06T04:45:31.622Z,5.07
2019-03-06T04:48:00.438Z,2.63
2019-03-06T04:50:29.746Z,3.53
2019-03-06T04:52:58.525Z,4.70
2019-03-06T04:55:28.136Z,4.87
2019-03-06T04:57:56.920Z,5.10
2019-03-06T05:00:25.782Z,3.17
2019-03-06T05:02:54.838Z,4.27
2019-03-06T05:05:24.740Z,2.87
2019-03-06T05:07:53.619Z,4.13
2019-03-06T05:10:22.474Z,3.43
2019-03-06T05:12:51.311Z,3.60
2019-03-06T05:15:20.449Z,2.37
2019-03-06T05:18:00.381Z,2.07
2019-03-06T05:20:29.654Z,5.40
2019-03-06T05:23:01.335Z,3.60
2019-03-06T05:25:30.322Z,3.27
2019-03-06T05:27:59.144Z,6.23
2019-03-06T05:30:29.635Z,2.73
2019-03-06T05:33:07.516Z,6.30
2019-03-06T05:35:42.625Z,2.93
2019-03-06T05:38:14.695Z,5.50
2019-03-06T05:40:43.602Z,2.17
2019-03-06T05:43:15.237Z,3.10
2019-03-06T05:45:44.227Z,2.70
2019-03-06T05:48:13.265Z,2.57
2019-03-06T05:50:42.364Z,5.73
2019-03-06T05:53:11.454Z,4.40
2019-03-06T05:55:40.422Z,2.43
2019-03-06T05:58:09.569Z,2.73
2019-03-06T06:00:38.578Z,4.47
2019-03-06T06:03:07.391Z,2.50
2019-03-06T06:05:36.487Z,3.67
2019-03-06T06:08:10.186Z,3.57
2019-03-06T06:10:37.583Z,3.83
2019-03-06T06:13:06.632Z,5.33
2019-03-06T06:15:35.620Z,3.03
2019-03-06T06:18:04.550Z,4.00
2019-03-06T06:20:33.390Z,3.53
2019-03-06T06:23:05.220Z,2.17
2019-03-06T06:25:35.451Z,5.00
2019-03-06T06:28:04.357Z,5.17
2019-03-06T06:30:34.940Z,5.57
2019-03-06T06:33:03.954Z,4.78
2019-03-06T06:35:32.900Z,5.53
2019-03-06T06:38:01.789Z,3.60
2019-03-06T06:40:30.799Z,4.40
2019-03-06T06:43:00.438Z,7.73
2019-03-06T06:45:30.862Z,4.57
2019-03-06T06:48:11.977Z,3.33
2019-03-06T06:51:01.206Z,5.47
2019-03-06T06:53:41.644Z,2.70
2019-03-06T06:56:16.484Z,2.57
2019-03-06T06:59:09.547Z,6.50
2019-03-06T07:02:04.341Z,4.47
2019-03-06T07:04:51.830Z,4.27
2019-03-06T07:07:40.442Z,4.97
2019-03-06T07:10:26.998Z,9.97
2019-03-06T07:13:03.417Z,4.93
2019-03-06T07:15:49.904Z,4.23
2019-03-06T07:18:29.857Z,6.93
2019-03-06T07:21:09.332Z,2.23
2019-03-06T07:23:41.364Z,5.80
2019-03-06T07:26:18.255Z,6.83
2019-03-06T07:28:54.857Z,3.33
2019-03-06T07:31:34.431Z,3.03
2019-03-06T07:34:22.972Z,7.53
2019-03-06T07:37:02.552Z,3.63
2019-03-06T07:39:33.047Z,3.33
2019-03-06T07:42:20.097Z,6.30
2019-03-06T07:45:42.574Z,3.00
2019-03-06T07:48:16.242Z,7.27
2019-03-06T07:50:46.973Z,3.23
2019-03-06T07:53:46.599Z,4.17
2019-03-06T07:56:19.950Z,5.83
2019-03-06T07:58:59.631Z,5.17
2019-03-06T08:01:31.105Z,6.90
2019-03-06T08:04:03.106Z,4.33
2019-03-06T08:06:32.806Z,2.50
2019-03-06T08:09:01.573Z,3.77
2019-03-06T08:11:41.099Z,4.30
2019-03-06T08:14:27.961Z,2.27
2019-03-06T08:16:58.494Z,3.83
2019-03-06T08:19:29.299Z,4.37
2019-03-06T08:22:02.559Z,4.30
2019-03-06T08:24:38.802Z,3.33
2019-03-06T08:27:07.647Z,2.27
2019-03-06T08:29:36.575Z,5.47
2019-03-06T08:32:06.788Z,2.20
2019-03-06T08:34:36.196Z,3.90
2019-03-06T08:37:05.046Z,3.40
2019-03-06T08:39:33.983Z,2.60
2019-03-06T08:42:02.788Z,3.73
2019-03-06T08:44:31.594Z,5.70
2019-03-06T08:47:05.294Z,3.73
2019-03-06T08:49:38.626Z,3.57
2019-03-06T08:52:09.453Z,2.03
2019-03-06T08:54:39.913Z,3.57
2019-03-06T08:57:19.280Z,3.70
2019-03-06T08:59:49.935Z,2.37
2019-03-06T09:02:21.058Z,3.37
2019-03-06T09:04:54.294Z,4.40
2019-03-06T09:07:25.037Z,4.57
2019-03-06T09:10:01.765Z,4.03
2019-03-06T09:12:32.307Z,2.47
2019-03-06T09:15:05.802Z,6.20
2019-03-06T09:17:36.364Z,2.23
2019-03-06T09:20:17.481Z,4.30
2019-03-06T09:22:48.132Z,7.27
2019-03-06T09:25:18.588Z,4.27
2019-03-06T09:27:54.648Z,2.93
2019-03-06T09:30:25.074Z,2.17
2019-03-06T09:32:55.692Z,3.27
2019-03-06T09:35:29.321Z,5.57
2019-03-06T09:38:11.322Z,10.20
2019-03-06T09:40:46.837Z,2.50
2019-03-06T09:43:32.962Z,3.53
2019-03-06T09:46:15.340Z,2.37
2019-03-06T09:49:11.203Z,1.80
2019-03-06T09:51:39.095Z,4.20
2019-03-06T09:54:24.519Z,2.97
2019-03-06T09:57:11.208Z,4.23
2019-03-06T09:59:41.963Z,4.40
2019-03-06T10:02:27.456Z,4.83
2019-03-06T10:04:58.033Z,4.00
2019-03-06T10:07:34.763Z,2.67
2019-03-06T10:10:06.855Z,3.57
2019-03-06T10:12:47.275Z,2.43
2019-03-06T10:15:12.999Z,2.83
2019-03-06T10:17:46.329Z,1.80
2019-03-06T10:20:24.808Z,3.70
2019-03-06T10:22:48.975Z,2.60
2019-03-06T10:25:18.081Z,2.80
2019-03-06T10:27:47.281Z,2.20
2019-03-06T10:30:18.830Z,4.70
2019-03-06T10:32:48.102Z,3.00
2019-03-06T10:35:17.179Z,1.93
2019-03-06T10:37:46.709Z,2.60
2019-03-06T10:40:17.685Z,1.90
2019-03-06T10:42:46.716Z,2.23
2019-03-06T10:45:16.646Z,3.10
2019-03-06T10:47:45.938Z,3.30
2019-03-06T10:50:28.422Z,1.80
2019-03-06T10:52:51.594Z,2.10
2019-03-06T10:55:20.791Z,3.67
2019-03-06T10:57:49.772Z,2.47
2019-03-06T11:00:31.545Z,5.57
2019-03-06T11:03:00.749Z,2.47
2019-03-06T11:05:31.317Z,4.20
2019-03-06T11:08:00.793Z,2.73
2019-03-06T11:10:31.606Z,2.63
2019-03-06T11:13:00.832Z,8.03
2019-03-06T11:15:29.860Z,7.50
2019-03-06T11:17:58.807Z,2.87
2019-03-06T11:20:33.008Z,3.37
2019-03-06T11:23:04.985Z,3.00
2019-03-06T11:25:34.246Z,3.77
2019-03-06T11:28:03.217Z,3.50
2019-03-06T11:30:34.944Z,4.97
2019-03-06T11:33:04.510Z,4.00
2019-03-06T11:35:34.206Z,6.10
2019-03-06T11:38:03.768Z,3.70
2019-03-06T11:40:33.779Z,2.73
2019-03-06T11:43:03.144Z,2.97
2019-03-06T11:45:32.158Z,2.83
2019-03-06T11:48:01.118Z,3.40
2019-03-06T11:50:30.026Z,5.37
2019-03-06T11:52:59.142Z,4.07
2019-03-06T11:55:28.089Z,4.90
2019-03-06T11:57:57.094Z,3.10
2019-03-06T12:00:36.822Z,8.90
2019-03-06T12:03:06.846Z,2.80
2019-03-06T12:05:37.199Z,3.17
2019-03-06T12:08:12.095Z,5.17
2019-03-06T12:10:41.195Z,3.90
2019-03-06T12:13:12.439Z,3.73
2019-03-06T12:15:42.594Z,3.50
2019-03-06T12:18:11.530Z,3.30
2019-03-06T12:20:40.417Z,4.23
2019-03-06T12:23:09.690Z,2.53
2019-03-06T12:25:38.836Z,3.23
2019-03-06T12:28:09.670Z,6.37
2019-03-06T12:30:39.252Z,2.37
2019-03-06T12:33:08.276Z,6.03
2019-03-06T12:35:37.794Z,5.33
2019-03-06T12:38:06.840Z,4.57
2019-03-06T12:40:35.927Z,3.03
2019-03-06T12:43:04.881Z,5.07
2019-03-06T12:45:33.961Z,4.23
2019-03-06T12:48:14.895Z,5.00
2019-03-06T12:50:53.310Z,3.43
2019-03-06T12:53:14.826Z,2.90
2019-03-06T12:55:43.833Z,3.67
2019-03-06T12:58:12.713Z,3.17
2019-03-06T13:00:41.994Z,3.27
2019-03-06T13:03:11.018Z,3.73
2019-03-06T13:05:40.105Z,3.60
2019-03-06T13:08:19.225Z,4.47
2019-03-06T13:10:39.984Z,3.03
2019-03-06T13:13:08.851Z,3.20
2019-03-06T13:15:37.818Z,3.17
2019-03-06T13:18:06.785Z,2.37
2019-03-06T13:20:35.862Z,4.30
2019-03-06T13:23:06.132Z,1.70
2019-03-06T13:25:35.102Z,3.33
2019-03-06T13:28:04.014Z,4.23
2019-03-06T13:30:34.350Z,11.03
2019-03-06T13:33:10.688Z,4.47
2019-03-06T13:35:40.513Z,6.53
2019-03-06T13:38:09.525Z,5.43
2019-03-06T13:40:38.729Z,3.77
2019-03-06T13:43:07.631Z,2.90
2019-03-06T13:45:36.639Z,2.77
2019-03-06T13:48:05.601Z,3.37
2019-03-06T13:50:34.511Z,2.60
2019-03-06T13:53:03.404Z,4.93
2019-03-06T13:55:32.373Z,2.20
2019-03-06T13:58:03.295Z,3.70
2019-03-06T14:00:32.210Z,3.03
2019-03-06T14:03:01.191Z,2.10
2019-03-06T14:05:30.153Z,3.33
2019-03-06T14:07:59.072Z,5.07
2019-03-06T14:10:28.099Z,2.33
2019-03-06T14:12:57.143Z,1.70
2019-03-06T14:15:26.116Z,2.30
2019-03-06T14:17:55.703Z,1.63
2019-03-06T14:20:25.083Z,4.10
2019-03-06T14:22:54.174Z,4.13
2019-03-06T14:25:23.837Z,3.53
2019-03-06T14:27:52.884Z,2.97
2019-03-06T14:30:24.762Z,4.23
2019-03-06T14:32:53.935Z,4.97
2019-03-06T14:35:22.965Z,2.47
2019-03-06T14:37:51.895Z,4.23
2019-03-06T14:40:29.647Z,3.87
2019-03-06T14:42:58.952Z,2.23
2019-03-06T14:45:27.859Z,4.53
2019-03-06T14:47:56.841Z,3.60
2019-03-06T14:50:25.757Z,3.10
2019-03-06T14:52:54.648Z,2.47
2019-03-06T14:55:24.130Z,3.50
2019-03-06T14:57:53.179Z,3.03
2019-03-06T15:00:22.380Z,4.33
2019-03-06T15:02:51.320Z,2.33
2019-03-06T15:05:21.325Z,2.93
2019-03-06T15:07:50.267Z,6.03
2019-03-06T15:10:19.720Z,3.03
2019-03-06T15:12:48.654Z,4.17
2019-03-06T15:15:19.021Z,4.73
2019-03-06T15:17:48.152Z,4.73
2019-03-06T15:20:19.384Z,3.03
2019-03-06T15:22:50.226Z,2.23
2019-03-06T15:25:29.088Z,5.03
2019-03-06T15:27:58.241Z,3.77
2019-03-06T15:30:27.181Z,3.37
2019-03-06T15:32:56.003Z,3.30
2019-03-06T15:35:24.880Z,7.00
2019-03-06T15:37:54.096Z,3.70
2019-03-06T15:40:29.161Z,3.30
2019-03-06T15:42:58.477Z,2.53
2019-03-06T15:45:34.080Z,3.80
2019-03-06T15:48:06.398Z,4.23
2019-03-06T15:50:35.437Z,2.63
2019-03-06T15:53:04.418Z,2.90
2019-03-06T15:55:33.362Z,2.23
2019-03-06T15:58:02.679Z,3.73
2019-03-06T16:00:45.413Z,4.23
2019-03-06T16:03:08.685Z,3.20
2019-03-06T16:05:37.581Z,2.53
2019-03-06T16:08:07.892Z,3.80
2019-03-06T16:10:36.781Z,6.87
2019-03-06T16:13:05.945Z,12.97
2019-03-06T16:15:34.975Z,9.33
2019-03-06T16:18:07.229Z,8.33
2019-03-06T16:20:37.140Z,18.30
2019-03-06T16:23:06.272Z,54.93
2019-03-06T16:25:37.292Z,69.17
2019-03-06T16:28:05.939Z,42.23
2019-03-06T16:30:35.030Z,32.10
2019-03-06T16:33:03.944Z,33.33
2019-03-06T16:35:32.978Z,30.67
2019-03-06T16:38:02.082Z,27.87
2019-03-06T16:40:31.411Z,30.00
2019-03-06T16:43:00.514Z,26.37
2019-03-06T16:45:30.185Z,20.97
2019-03-06T16:47:59.590Z,26.87
2019-03-06T16:50:28.661Z,19.67
2019-03-06T16:52:57.943Z,15.30
2019-03-06T16:55:26.892Z,15.60
2019-03-06T16:57:56.587Z,10.40
2019-03-06T17:00:43.905Z,8.20
2019-03-06T17:03:12.964Z,8.47
2019-03-06T17:05:42.133Z,5.30
2019-03-06T17:08:11.215Z,6.63
2019-03-06T17:10:40.286Z,12.90
2019-03-06T17:13:09.187Z,12.53
2019-03-06T17:15:38.188Z,12.20
2019-03-06T17:18:09.366Z,10.70
2019-03-06T17:20:38.453Z,10.80
2019-03-06T17:23:07.353Z,14.83
2019-03-06T17:25:36.641Z,16.80
2019-03-06T17:28:05.717Z,12.13
2019-03-06T17:30:35.517Z,10.83
2019-03-06T17:33:15.177Z,12.37
2019-03-06T17:35:44.650Z,9.40
2019-03-06T17:38:15.208Z,10.13
2019-03-06T17:40:45.044Z,10.87
2019-03-06T17:43:14.134Z,7.97
2019-03-06T17:45:43.548Z,7.13
2019-03-06T17:48:12.622Z,6.27
2019-03-06T17:50:41.794Z,6.60
2019-03-06T17:53:10.825Z,6.07
2019-03-06T17:55:39.931Z,6.90
2019-03-06T17:58:08.939Z,6.77
2019-03-06T18:00:55.251Z,9.47
2019-03-06T18:03:31.514Z,7.97
2019-03-06T18:06:00.473Z,4.77
2019-03-06T18:08:29.844Z,7.93
2019-03-06T18:10:59.023Z,7.10
2019-03-06T18:13:29.867Z,6.20
2019-03-06T18:15:58.503Z,9.03
2019-03-06T18:18:29.179Z,9.57
2019-03-06T18:20:58.412Z,10.07
2019-03-06T18:23:27.643Z,7.87
2019-03-06T18:25:56.544Z,10.63
2019-03-06T18:28:25.834Z,7.23
2019-03-06T18:30:54.824Z,7.00
2019-03-06T18:33:23.798Z,4.90
2019-03-06T18:35:52.665Z,7.67
2019-03-06T18:38:22.276Z,6.03
2019-03-06T18:40:51.320Z,5.77
2019-03-06T18:43:20.509Z,6.63
2019-03-06T18:45:51.849Z,6.47
2019-03-06T18:48:20.741Z,6.33
2019-03-06T18:50:49.995Z,5.90
2019-03-06T18:53:19.349Z,7.57
2019-03-06T18:55:48.566Z,5.87
2019-03-06T18:58:17.783Z,6.93
2019-03-06T19:00:46.802Z,5.13
2019-03-06T19:03:16.517Z,7.57
2019-03-06T19:05:45.564Z,4.60
2019-03-06T19:08:14.761Z,9.20
2019-03-06T19:10:44.741Z,9.13
2019-03-06T19:13:13.582Z,7.73
2019-03-06T19:15:42.616Z,8.23
2019-03-06T19:18:12.048Z,8.53
2019-03-06T19:20:41.134Z,7.30
2019-03-06T19:23:10.481Z,6.87
2019-03-06T19:25:39.519Z,9.30
2019-03-06T19:28:08.518Z,10.10
2019-03-06T19:30:37.452Z,8.07
2019-03-06T19:33:06.707Z,10.73
2019-03-06T19:35:35.609Z,10.47
2019-03-06T19:38:06.346Z,11.27
2019-03-06T19:40:35.473Z,10.67
2019-03-06T19:43:06.061Z,10.80
2019-03-06T19:45:36.489Z,9.10
2019-03-06T19:48:05.477Z,9.50
2019-03-06T19:50:34.482Z,10.63
2019-03-06T19:53:03.871Z,10.53
2019-03-06T19:55:33.077Z,10.10
2019-03-06T19:58:04.413Z,11.50
2019-03-06T20:00:33.645Z,11.40
2019-03-06T20:03:03.149Z,10.07
2019-03-06T20:05:37.539Z,9.53
2019-03-06T20:08:08.600Z,12.60
2019-03-06T20:10:38.030Z,10.50
2019-03-06T20:13:07.666Z,11.53
2019-03-06T20:15:37.531Z,11.43
2019-03-06T20:18:06.640Z,17.07
2019-03-06T20:20:35.674Z,12.87
2019-03-06T20:23:04.930Z,13.50
2019-03-06T20:25:34.193Z,10.10
2019-03-06T20:28:03.471Z,11.10
2019-03-06T20:30:32.590Z,9.90
2019-03-06T20:33:01.945Z,9.43
2019-03-06T20:35:30.874Z,10.30
2019-03-06T20:38:00.244Z,10.13
2019-03-06T20:40:29.359Z,10.93
2019-03-06T20:42:58.544Z,11.87
2019-03-06T20:45:29.278Z,11.03
2019-03-06T20:47:58.294Z,10.27
2019-03-06T20:50:27.255Z,11.77
2019-03-06T20:52:56.596Z,9.53
2019-03-06T20:55:25.871Z,10.47
2019-03-06T20:57:54.987Z,11.80
2019-03-06T21:00:26.529Z,8.83
2019-03-06T21:02:55.844Z,14.07
2019-03-06T21:05:24.793Z,10.73
2019-03-06T21:07:53.768Z,11.60
2019-03-06T21:10:22.930Z,10.50
2019-03-06T21:12:52.211Z,10.30
2019-03-06T21:15:24.424Z,13.07
2019-03-06T21:17:53.304Z,11.20
2019-03-06T21:20:23.228Z,10.90
2019-03-06T21:22:52.253Z,10.57
2019-03-06T21:25:21.864Z,11.25
2019-03-06T21:27:51.083Z,11.30
2019-03-06T21:30:26.508Z,11.57
2019-03-06T21:32:55.484Z,9.40
2019-03-06T21:35:24.540Z,12.77
2019-03-06T21:37:53.595Z,10.33
2019-03-06T21:40:22.820Z,10.70
2019-03-06T21:42:52.021Z,7.50
2019-03-06T21:45:20.938Z,8.63
2019-03-06T21:47:50.198Z,9.37
2019-03-06T21:50:19.721Z,7.87
2019-03-06T21:52:48.729Z,7.90
2019-03-06T21:55:18.029Z,6.40
2019-03-06T21:57:47.509Z,5.90
2019-03-06T22:00:25.591Z,9.10
2019-03-06T22:02:54.820Z,6.07
2019-03-06T22:05:24.092Z,8.07
2019-03-06T22:07:53.310Z,6.87
2019-03-06T22:10:22.301Z,9.00
2019-03-06T22:12:51.749Z,6.77
2019-03-06T22:15:23.878Z,6.50
2019-03-06T22:17:53.089Z,6.90
2019-03-06T22:20:22.174Z,8.53
2019-03-06T22:22:51.226Z,8.87
2019-03-06T22:25:20.697Z,8.97
2019-03-06T22:27:49.729Z,6.87
2019-03-06T22:30:22.232Z,6.97
2019-03-06T22:32:50.475Z,7.60
2019-03-06T22:35:19.441Z,7.17
2019-03-06T22:37:48.711Z,8.40
2019-03-06T22:40:20.392Z,8.67
2019-03-06T22:42:49.517Z,7.30
2019-03-06T22:45:19.939Z,6.73
2019-03-06T22:47:49.107Z,5.23
2019-03-06T22:50:19.139Z,5.17
2019-03-06T22:52:48.376Z,7.03
2019-03-06T22:55:19.567Z,5.33
2019-03-06T22:57:50.439Z,3.67
2019-03-06T23:00:32.627Z,8.00
2019-03-06T23:03:01.943Z,5.13
2019-03-06T23:05:32.745Z,6.63
2019-03-06T23:08:01.831Z,7.00
2019-03-06T23:10:30.914Z,6.47
2019-03-06T23:12:59.916Z,5.77
2019-03-06T23:15:29.199Z,6.33
2019-03-06T23:17:58.428Z,9.77
2019-03-06T23:20:27.283Z,7.73
2019-03-06T23:22:56.672Z,6.13
2019-03-06T23:25:26.967Z,6.87
2019-03-06T23:27:56.090Z,5.53
2019-03-06T23:30:25.066Z,7.87
2019-03-06T23:32:54.014Z,8.33
2019-03-06T23:35:23.614Z,6.13
2019-03-06T23:37:52.474Z,5.27
2019-03-06T23:40:21.605Z,5.93
2019-03-06T23:42:50.466Z,9.53
2019-03-06T23:45:19.671Z,5.27
2019-03-06T23:47:48.617Z,5.67
2019-03-06T23:50:17.617Z,6.07
2019-03-06T23:53:06.439Z,5.57
2019-03-06T23:55:35.600Z,6.60
2019-03-06T23:58:04.869Z,7.27
